createdAt,value
2018-05-25T00:00:01.073Z,13.20
2018-05-25T00:01:01.253Z,13.20
2018-05-25T00:02:01.436Z,13.10
2018-05-25T00:03:01.625Z,13.30
2018-05-25T00:04:01.804Z,12.80
2018-05-25T00:05:01.985Z,13.50
2018-05-25T00:06:02.161Z,12.70
2018-05-25T00:07:02.344Z,13.00
2018-05-25T00:08:02.527Z,12.40
2018-05-25T00:09:02.703Z,12.30
2018-05-25T00:10:02.878Z,12.70
2018-05-25T00:11:03.056Z,12.80
2018-05-25T00:12:03.236Z,12.00
2018-05-25T00:13:03.413Z,12.00
2018-05-25T00:14:03.590Z,11.80
2018-05-25T00:15:03.784Z,12.60
2018-05-25T00:16:03.968Z,12.00
2018-05-25T00:17:04.149Z,11.80
2018-05-25T00:18:04.323Z,11.20
2018-05-25T00:19:04.510Z,11.80
2018-05-25T00:20:04.686Z,11.30
2018-05-25T00:21:04.861Z,11.90
2018-05-25T00:22:05.040Z,11.50
2018-05-25T00:23:05.213Z,11.80
2018-05-25T00:24:05.388Z,11.20
2018-05-25T00:25:05.567Z,11.60
2018-05-25T00:26:05.759Z,11.70
2018-05-25T00:27:05.975Z,11.40
2018-05-25T00:28:06.122Z,11.10
2018-05-25T00:29:06.304Z,11.10
2018-05-25T00:30:06.493Z,11.60
2018-05-25T00:31:06.671Z,12.10
2018-05-25T00:32:06.850Z,12.00
2018-05-25T00:33:07.026Z,11.90
2018-05-25T00:34:07.202Z,11.80
2018-05-25T00:35:07.375Z,11.90
2018-05-25T00:36:07.556Z,12.20
2018-05-25T00:37:07.744Z,11.30
2018-05-25T00:38:07.930Z,12.40
2018-05-25T00:39:08.116Z,12.80
2018-05-25T00:40:08.301Z,11.70
2018-05-25T00:41:08.481Z,12.00
2018-05-25T00:42:08.664Z,12.20
2018-05-25T00:43:08.846Z,11.80
2018-05-25T00:44:09.037Z,12.30
2018-05-25T00:45:09.229Z,11.60
2018-05-25T00:46:09.414Z,11.50
2018-05-25T00:47:09.592Z,11.40
2018-05-25T00:48:09.771Z,10.70
2018-05-25T00:49:09.947Z,10.40
2018-05-25T00:50:10.135Z,10.40
2018-05-25T00:51:10.315Z,10.30
2018-05-25T00:52:10.493Z,10.80
2018-05-25T00:53:10.665Z,10.80
2018-05-25T00:54:10.842Z,11.00
2018-05-25T00:55:11.022Z,11.00
2018-05-25T00:56:11.207Z,10.90
2018-05-25T00:57:11.393Z,11.20
2018-05-25T00:58:11.575Z,11.50
2018-05-25T00:59:11.762Z,11.40
2018-05-25T01:00:11.945Z,11.30
2018-05-25T01:01:12.120Z,12.00
2018-05-25T01:02:12.302Z,11.70
2018-05-25T01:03:12.472Z,12.30
2018-05-25T01:04:12.647Z,12.00
2018-05-25T01:05:12.827Z,12.20
2018-05-25T01:06:13.011Z,12.00
2018-05-25T01:07:13.197Z,12.90
2018-05-25T01:08:13.378Z,12.20
2018-05-25T01:09:13.558Z,12.80
2018-05-25T01:10:13.747Z,12.60
2018-05-25T01:11:13.926Z,12.10
2018-05-25T01:12:14.111Z,12.60
2018-05-25T01:13:14.287Z,12.30
2018-05-25T01:14:14.466Z,13.40
2018-05-25T01:15:14.644Z,14.00
2018-05-25T01:16:14.819Z,13.70
2018-05-25T01:17:14.992Z,13.40
2018-05-25T01:18:15.174Z,12.30
2018-05-25T01:19:15.352Z,13.40
2018-05-25T01:20:15.533Z,12.90
2018-05-25T01:21:15.714Z,12.80
2018-05-25T01:22:15.895Z,13.60
2018-05-25T01:23:16.082Z,13.20
2018-05-25T01:24:16.259Z,12.80
2018-05-25T01:25:16.445Z,12.80
2018-05-25T01:26:16.633Z,12.00
2018-05-25T01:27:16.812Z,13.00
2018-05-25T01:28:16.987Z,12.60
2018-05-25T01:29:17.166Z,12.60
2018-05-25T01:30:17.345Z,12.60
2018-05-25T01:31:17.519Z,14.50
2018-05-25T01:32:17.705Z,14.10
2018-05-25T01:33:17.881Z,14.30
2018-05-25T01:34:18.062Z,13.90
2018-05-25T01:35:18.238Z,13.80
2018-05-25T01:36:18.418Z,14.30
2018-05-25T01:37:18.603Z,13.70
2018-05-25T01:38:18.787Z,14.80
2018-05-25T01:39:18.978Z,14.30
2018-05-25T01:40:19.158Z,14.00
2018-05-25T01:41:19.331Z,14.20
2018-05-25T01:42:19.513Z,14.80
2018-05-25T01:43:19.694Z,14.90
2018-05-25T01:44:19.870Z,14.50
2018-05-25T01:45:20.054Z,15.80
2018-05-25T01:46:20.223Z,15.40
2018-05-25T01:47:20.399Z,15.80
2018-05-25T01:48:20.580Z,15.30
2018-05-25T01:49:20.751Z,14.60
2018-05-25T01:50:20.931Z,14.90
2018-05-25T01:51:21.108Z,14.90
2018-05-25T01:52:21.288Z,15.50
2018-05-25T01:53:21.465Z,15.30
2018-05-25T01:54:21.647Z,14.50
2018-05-25T01:55:21.838Z,15.60
2018-05-25T01:56:22.016Z,16.40
2018-05-25T01:57:22.196Z,15.60
2018-05-25T01:58:22.377Z,15.70
2018-05-25T01:59:22.553Z,16.90
2018-05-25T02:00:22.734Z,15.90
2018-05-25T02:01:22.919Z,16.50
2018-05-25T02:02:23.101Z,15.90
2018-05-25T02:03:23.279Z,16.90
2018-05-25T02:04:23.460Z,16.50
2018-05-25T02:05:23.641Z,17.00
2018-05-25T02:06:23.830Z,15.90
2018-05-25T02:07:24.009Z,15.90
2018-05-25T02:08:24.186Z,15.50
2018-05-25T02:09:24.361Z,15.60
2018-05-25T02:10:24.551Z,15.70
2018-05-25T02:11:24.725Z,16.20
2018-05-25T02:12:24.900Z,16.80
2018-05-25T02:13:25.083Z,16.50
2018-05-25T02:14:25.273Z,16.60
2018-05-25T02:15:25.455Z,17.20
2018-05-25T02:16:25.638Z,16.70
2018-05-25T02:17:25.816Z,16.50
2018-05-25T02:18:25.998Z,17.20
2018-05-25T02:19:26.175Z,16.70
2018-05-25T02:20:26.352Z,15.80
2018-05-25T02:21:26.531Z,16.90
2018-05-25T02:22:26.717Z,16.40
2018-05-25T02:23:26.895Z,16.50
2018-05-25T02:24:27.080Z,17.80
2018-05-25T02:25:27.258Z,16.60
2018-05-25T02:26:27.439Z,17.40
2018-05-25T02:27:27.615Z,17.50
2018-05-25T02:28:27.794Z,17.30
2018-05-25T02:29:27.972Z,18.00
2018-05-25T02:30:28.149Z,17.80
2018-05-25T02:31:28.322Z,17.40
2018-05-25T02:32:28.502Z,18.60
2018-05-25T02:33:28.687Z,18.20
2018-05-25T02:34:28.871Z,18.00
2018-05-25T02:35:29.052Z,17.30
2018-05-25T02:36:29.238Z,17.70
2018-05-25T02:37:29.417Z,18.40
2018-05-25T02:38:29.593Z,18.00
2018-05-25T02:39:29.778Z,17.90
2018-05-25T02:40:29.958Z,18.20
2018-05-25T02:41:30.147Z,17.60
2018-05-25T02:42:30.317Z,17.90
2018-05-25T02:43:30.507Z,18.20
2018-05-25T02:44:30.687Z,17.70
2018-05-25T02:45:30.868Z,17.60
2018-05-25T02:46:31.049Z,17.30
2018-05-25T02:47:31.227Z,17.80
2018-05-25T02:48:31.406Z,18.10
2018-05-25T02:49:31.600Z,17.10
2018-05-25T02:50:31.781Z,17.90
2018-05-25T02:51:31.965Z,17.90
2018-05-25T02:52:32.145Z,18.80
2018-05-25T02:53:32.325Z,18.50
2018-05-25T02:54:32.503Z,18.60
2018-05-25T02:55:32.697Z,18.10
2018-05-25T02:56:32.877Z,18.10
2018-05-25T02:57:33.061Z,17.30
2018-05-25T02:58:33.242Z,17.80
2018-05-25T02:59:33.422Z,18.10
2018-05-25T03:00:33.616Z,17.70
2018-05-25T03:01:33.796Z,19.40
2018-05-25T03:02:33.972Z,18.40
2018-05-25T03:03:34.147Z,19.00
2018-05-25T03:04:34.325Z,17.50
2018-05-25T03:05:34.500Z,17.70
2018-05-25T03:06:34.688Z,17.90
2018-05-25T03:07:34.872Z,18.00
2018-05-25T03:08:35.063Z,19.00
2018-05-25T03:09:35.249Z,18.60
2018-05-25T03:10:35.441Z,18.90
2018-05-25T03:11:35.620Z,19.80
2018-05-25T03:12:35.800Z,19.00
2018-05-25T03:13:35.983Z,19.10
2018-05-25T03:14:36.157Z,18.80
2018-05-25T03:15:36.342Z,18.50
2018-05-25T03:16:36.536Z,18.50
2018-05-25T03:17:36.720Z,19.30
2018-05-25T03:18:36.900Z,18.50
2018-05-25T03:19:37.073Z,18.90
2018-05-25T03:20:37.246Z,20.00
2018-05-25T03:21:37.427Z,19.40
2018-05-25T03:22:37.595Z,19.50
2018-05-25T03:23:37.777Z,19.50
2018-05-25T03:24:37.963Z,19.90
2018-05-25T03:25:38.142Z,20.80
2018-05-25T03:26:38.330Z,21.20
2018-05-25T03:27:38.507Z,21.20
2018-05-25T03:28:38.684Z,22.00
2018-05-25T03:29:38.866Z,21.40
2018-05-25T03:30:39.045Z,20.20
2018-05-25T03:31:39.227Z,21.00
2018-05-25T03:32:39.409Z,20.70
2018-05-25T03:33:39.590Z,21.00
2018-05-25T03:34:39.790Z,20.40
2018-05-25T03:35:39.979Z,19.60
2018-05-25T03:36:40.149Z,19.60
2018-05-25T03:37:40.332Z,19.80
2018-05-25T03:38:40.514Z,20.10
2018-05-25T03:39:40.705Z,20.20
2018-05-25T03:40:40.881Z,20.70
2018-05-25T03:41:41.058Z,20.60
2018-05-25T03:42:41.348Z,21.00
2018-05-25T03:43:41.444Z,20.10
2018-05-25T03:44:41.660Z,20.60
2018-05-25T03:45:41.843Z,20.10
2018-05-25T03:46:42.024Z,20.60
2018-05-25T03:47:42.211Z,21.00
2018-05-25T03:48:42.396Z,19.30
2018-05-25T03:49:42.584Z,19.70
2018-05-25T03:50:42.762Z,19.10
2018-05-25T03:51:42.947Z,20.10
2018-05-25T03:52:43.134Z,19.70
2018-05-25T03:53:43.312Z,19.00
2018-05-25T03:54:43.489Z,20.70
2018-05-25T03:55:43.666Z,20.90
2018-05-25T03:56:43.842Z,20.10
2018-05-25T03:57:44.028Z,20.00
2018-05-25T03:58:44.207Z,20.70
2018-05-25T03:59:44.400Z,20.30
2018-05-25T04:00:44.582Z,20.10
2018-05-25T04:01:44.763Z,20.10
2018-05-25T04:02:44.941Z,20.20
2018-05-25T04:03:45.126Z,19.70
2018-05-25T04:04:45.317Z,19.40
2018-05-25T04:05:45.494Z,19.50
2018-05-25T04:06:45.685Z,18.70
2018-05-25T04:07:45.879Z,19.60
2018-05-25T04:08:46.055Z,19.40
2018-05-25T04:09:46.228Z,20.10
2018-05-25T04:10:46.407Z,20.50
2018-05-25T04:11:46.588Z,20.40
2018-05-25T04:12:46.763Z,18.80
2018-05-25T04:13:46.938Z,19.00
2018-05-25T04:14:47.138Z,20.20
2018-05-25T04:15:47.325Z,19.70
2018-05-25T04:16:47.515Z,19.40
2018-05-25T04:17:47.707Z,20.00
2018-05-25T04:18:47.886Z,18.90
2018-05-25T04:19:48.068Z,20.10
2018-05-25T04:20:48.253Z,20.20
2018-05-25T04:21:48.441Z,19.30
2018-05-25T04:22:48.618Z,20.20
2018-05-25T04:23:48.804Z,19.90
2018-05-25T04:24:48.986Z,19.00
2018-05-25T04:25:49.167Z,18.90
2018-05-25T04:26:49.401Z,19.90
2018-05-25T04:27:49.578Z,19.10
2018-05-25T04:28:49.776Z,20.50
2018-05-25T04:29:49.956Z,20.50
2018-05-25T04:30:50.167Z,19.50
2018-05-25T04:31:50.324Z,19.20
2018-05-25T04:32:50.518Z,18.30
2018-05-25T04:33:50.710Z,18.50
2018-05-25T04:34:50.876Z,19.50
2018-05-25T04:35:51.071Z,19.70
2018-05-25T04:36:51.271Z,19.80
2018-05-25T04:37:51.458Z,19.20
2018-05-25T04:38:53.503Z,19.50
2018-05-25T04:39:54.561Z,19.40
2018-05-25T04:40:54.398Z,19.00
2018-05-25T04:41:53.897Z,19.10
2018-05-25T04:42:55.885Z,19.80
2018-05-25T04:43:53.966Z,19.50
2018-05-25T04:44:55.187Z,19.80
2018-05-25T04:45:53.433Z,19.40
2018-05-25T04:46:53.361Z,20.10
2018-05-25T04:47:53.206Z,20.00
2018-05-25T04:48:53.253Z,18.80
2018-05-25T04:49:53.440Z,18.90
2018-05-25T04:50:53.632Z,19.10
2018-05-25T04:51:53.826Z,19.00
2018-05-25T04:52:54.019Z,18.40
2018-05-25T04:53:54.209Z,17.70
2018-05-25T04:54:54.370Z,17.00
2018-05-25T04:55:54.565Z,17.00
2018-05-25T04:56:54.741Z,18.00
2018-05-25T04:57:54.924Z,17.90
2018-05-25T04:58:57.412Z,17.00
2018-05-25T04:59:57.743Z,17.90
2018-05-25T05:00:57.820Z,17.80
2018-05-25T05:01:57.634Z,17.90
2018-05-25T05:02:57.517Z,18.80
2018-05-25T05:03:58.008Z,18.20
2018-05-25T05:04:59.032Z,18.20
2018-05-25T05:05:57.500Z,17.80
2018-05-25T05:06:58.059Z,18.30
2018-05-25T05:07:59.512Z,18.80
2018-05-25T05:08:56.658Z,18.00
2018-05-25T05:09:56.692Z,17.90
2018-05-25T05:10:56.870Z,18.30
2018-05-25T05:11:57.049Z,17.30
2018-05-25T05:12:57.236Z,18.00
2018-05-25T05:13:58.322Z,17.70
2018-05-25T05:14:58.646Z,17.00
2018-05-25T05:15:58.215Z,17.80
2018-05-25T05:16:57.869Z,17.10
2018-05-25T05:17:59.438Z,16.90
2018-05-25T05:18:58.525Z,16.80
2018-05-25T05:19:58.561Z,16.70
2018-05-25T05:20:58.851Z,17.00
2018-05-25T05:21:58.793Z,17.20
2018-05-25T05:22:59.240Z,16.80
2018-05-25T05:23:59.127Z,16.90
2018-05-25T05:24:59.349Z,16.60
2018-05-25T05:25:59.561Z,17.00
2018-05-25T05:26:59.740Z,16.60
2018-05-25T05:27:59.929Z,16.30
2018-05-25T05:29:00.483Z,16.60
2018-05-25T05:30:00.302Z,18.80
2018-05-25T05:31:00.500Z,17.50
2018-05-25T05:32:00.686Z,15.90
2018-05-25T05:33:05.880Z,15.40
2018-05-25T05:34:03.148Z,15.80
2018-05-25T05:35:01.194Z,15.90
2018-05-25T05:36:02.003Z,16.10
2018-05-25T05:37:01.542Z,16.10
2018-05-25T05:38:01.724Z,16.50
2018-05-25T05:39:01.916Z,16.30
2018-05-25T05:40:02.099Z,15.50
2018-05-25T05:41:02.277Z,16.20
2018-05-25T05:42:02.452Z,16.10
2018-05-25T05:43:02.646Z,15.60
2018-05-25T05:44:02.833Z,16.10
2018-05-25T05:45:03.025Z,15.10
2018-05-25T05:46:03.239Z,15.30
2018-05-25T05:47:03.443Z,15.00
2018-05-25T05:48:03.627Z,16.20
2018-05-25T05:49:03.817Z,15.60
2018-05-25T05:50:04.002Z,14.40
2018-05-25T05:51:04.198Z,15.20
2018-05-25T05:52:04.387Z,15.80
2018-05-25T05:53:04.581Z,15.20
2018-05-25T05:54:04.770Z,14.50
2018-05-25T05:55:04.964Z,14.80
2018-05-25T05:56:05.148Z,14.20
2018-05-25T05:57:05.327Z,13.90
2018-05-25T05:58:05.504Z,13.30
2018-05-25T05:59:05.692Z,13.90
2018-05-25T06:00:05.868Z,13.10
2018-05-25T06:01:06.049Z,13.80
2018-05-25T06:02:06.233Z,13.10
2018-05-25T06:03:06.412Z,13.10
2018-05-25T06:04:06.624Z,13.10
2018-05-25T06:05:06.806Z,13.10
2018-05-25T06:06:06.985Z,13.20
2018-05-25T06:07:07.174Z,13.60
2018-05-25T06:08:08.114Z,13.00
2018-05-25T06:09:07.548Z,13.10
2018-05-25T06:10:07.760Z,12.50
2018-05-25T06:11:07.940Z,12.00
2018-05-25T06:12:08.138Z,12.90
2018-05-25T06:13:08.331Z,13.00
2018-05-25T06:14:08.510Z,12.50
2018-05-25T06:15:08.702Z,12.80
2018-05-25T06:16:08.882Z,12.00
2018-05-25T06:17:09.072Z,12.60
2018-05-25T06:18:09.251Z,12.00
2018-05-25T06:19:09.446Z,11.90
2018-05-25T06:20:09.674Z,11.70
2018-05-25T06:21:09.824Z,12.10
2018-05-25T06:22:10.025Z,11.80
2018-05-25T06:23:10.205Z,11.60
2018-05-25T06:24:10.686Z,12.30
2018-05-25T06:25:10.512Z,11.80
2018-05-25T06:26:10.707Z,11.80
2018-05-25T06:27:10.902Z,11.50
2018-05-25T06:28:11.085Z,13.10
2018-05-25T06:29:11.298Z,12.40
2018-05-25T06:30:11.473Z,11.60
2018-05-25T06:31:11.661Z,11.90
2018-05-25T06:32:11.857Z,11.70
2018-05-25T06:33:12.077Z,12.30
2018-05-25T06:34:12.250Z,11.00
2018-05-25T06:35:12.702Z,11.80
2018-05-25T06:36:12.868Z,11.90
2018-05-25T06:37:13.047Z,10.30
2018-05-25T06:38:13.436Z,11.30
2018-05-25T06:39:13.407Z,10.80
2018-05-25T06:40:13.651Z,10.50
2018-05-25T06:41:13.807Z,9.40
2018-05-25T06:42:13.898Z,10.00
2018-05-25T06:43:14.042Z,9.40
2018-05-25T06:44:14.236Z,9.50
2018-05-25T06:45:14.525Z,9.40
2018-05-25T06:46:14.816Z,9.40
2018-05-25T06:47:14.779Z,8.90
2018-05-25T06:48:14.830Z,9.20
2018-05-25T06:49:15.067Z,8.40
2018-05-25T06:50:15.250Z,8.40
2018-05-25T06:51:15.438Z,8.50
2018-05-25T06:52:15.646Z,8.20
2018-05-25T06:53:15.839Z,7.60
2018-05-25T06:54:16.021Z,7.10
2018-05-25T06:55:16.212Z,7.20
2018-05-25T06:56:16.405Z,6.80
2018-05-25T06:57:16.590Z,7.20
2018-05-25T06:58:16.781Z,7.10
2018-05-25T06:59:16.975Z,6.80
2018-05-25T07:00:17.165Z,7.50
2018-05-25T07:01:17.362Z,6.80
2018-05-25T07:02:17.570Z,6.60
2018-05-25T07:03:17.771Z,6.40
2018-05-25T07:04:17.976Z,6.60
2018-05-25T07:05:18.167Z,7.60
2018-05-25T07:06:18.432Z,6.70
2018-05-25T07:07:18.471Z,6.40
2018-05-25T07:08:18.659Z,6.40
2018-05-25T07:09:18.861Z,6.40
2018-05-25T07:10:19.059Z,6.20
2018-05-25T07:11:19.282Z,6.60
2018-05-25T07:12:19.471Z,6.40
2018-05-25T07:13:19.670Z,6.30
2018-05-25T07:14:19.995Z,5.70
2018-05-25T07:15:20.067Z,5.90
2018-05-25T07:16:20.251Z,5.90
2018-05-25T07:17:20.465Z,6.00
2018-05-25T07:18:20.658Z,6.10
2018-05-25T07:19:20.860Z,6.30
2018-05-25T07:20:21.040Z,6.40
2018-05-25T07:21:21.228Z,6.10
2018-05-25T07:22:21.415Z,6.50
2018-05-25T07:23:21.610Z,6.10
2018-05-25T07:24:21.806Z,5.90
2018-05-25T07:25:22.006Z,5.90
2018-05-25T07:26:22.205Z,6.40
2018-05-25T07:27:22.544Z,6.20
2018-05-25T07:28:22.628Z,6.00
2018-05-25T07:29:22.834Z,5.90
2018-05-25T07:30:23.025Z,5.80
2018-05-25T07:31:23.223Z,5.90
2018-05-25T07:32:23.409Z,6.20
2018-05-25T07:33:23.635Z,5.90
2018-05-25T07:34:23.846Z,5.80
2018-05-25T07:35:24.080Z,6.30
2018-05-25T07:36:24.398Z,5.80
2018-05-25T07:37:24.350Z,5.70
2018-05-25T07:38:24.556Z,5.90
2018-05-25T07:39:24.824Z,5.50
2018-05-25T07:40:24.948Z,5.90
2018-05-25T07:41:25.137Z,5.60
2018-05-25T07:42:25.329Z,5.60
2018-05-25T07:43:25.541Z,6.10
2018-05-25T07:44:25.728Z,5.90
2018-05-25T07:45:25.928Z,5.30
2018-05-25T07:46:26.128Z,5.50
2018-05-25T07:47:26.326Z,5.20
2018-05-25T07:48:26.511Z,6.20
2018-05-25T07:49:26.701Z,5.20
2018-05-25T07:50:26.894Z,5.80
2018-05-25T07:51:27.080Z,5.50
2018-05-25T07:52:27.272Z,6.10
2018-05-25T07:53:27.466Z,5.40
2018-05-25T07:54:27.693Z,5.80
2018-05-25T07:55:27.853Z,5.40
2018-05-25T07:56:28.063Z,5.60
2018-05-25T07:57:28.382Z,5.40
2018-05-25T07:58:31.538Z,5.50
2018-05-25T07:59:33.151Z,4.80
2018-05-25T08:00:31.710Z,5.80
2018-05-25T08:01:30.744Z,5.20
2018-05-25T08:02:32.952Z,5.60
2018-05-25T08:03:30.912Z,5.60
2018-05-25T08:04:32.189Z,5.00
2018-05-25T08:05:32.228Z,5.80
2018-05-25T08:06:33.307Z,5.40
2018-05-25T08:07:32.270Z,5.30
2018-05-25T08:08:30.271Z,5.30
2018-05-25T08:09:30.468Z,5.20
2018-05-25T08:10:30.662Z,5.00
2018-05-25T08:11:30.873Z,4.80
2018-05-25T08:12:31.054Z,5.00
2018-05-25T08:13:31.250Z,4.80
2018-05-25T08:14:31.457Z,4.70
2018-05-25T08:15:31.647Z,4.60
2018-05-25T08:16:31.839Z,4.70
2018-05-25T08:17:32.031Z,4.90
2018-05-25T08:18:32.221Z,4.70
2018-05-25T08:19:32.406Z,4.50
2018-05-25T08:20:32.612Z,4.60
2018-05-25T08:21:32.800Z,4.90
2018-05-25T08:22:33.000Z,5.50
2018-05-25T08:23:33.216Z,4.70
2018-05-25T08:24:33.398Z,5.50
2018-05-25T08:25:33.615Z,6.50
2018-05-25T08:26:33.807Z,6.70
2018-05-25T08:27:34.008Z,6.00
2018-05-25T08:28:34.232Z,5.30
2018-05-25T08:29:34.453Z,5.70
2018-05-25T08:30:34.653Z,5.70
2018-05-25T08:31:34.862Z,5.90
2018-05-25T08:32:35.058Z,4.90
2018-05-25T08:33:35.254Z,5.40
2018-05-25T08:34:35.457Z,5.30
2018-05-25T08:35:35.691Z,4.90
2018-05-25T08:36:35.768Z,4.70
2018-05-25T08:37:35.961Z,4.60
2018-05-25T08:38:36.159Z,6.00
2018-05-25T08:39:36.345Z,6.00
2018-05-25T08:40:36.543Z,5.30
2018-05-25T08:41:36.748Z,5.00
2018-05-25T08:42:36.956Z,4.80
2018-05-25T08:43:37.160Z,5.70
2018-05-25T08:44:37.356Z,5.80
2018-05-25T08:45:39.987Z,8.50
2018-05-25T08:46:37.671Z,8.90
2018-05-25T08:47:37.875Z,7.10
2018-05-25T08:48:38.076Z,6.00
2018-05-25T08:49:38.297Z,5.00
2018-05-25T08:50:38.487Z,4.90
2018-05-25T08:51:38.965Z,5.10
2018-05-25T08:52:38.907Z,4.90
2018-05-25T08:53:41.572Z,6.30
2018-05-25T08:54:40.744Z,5.90
2018-05-25T08:55:39.996Z,5.50
2018-05-25T08:56:40.057Z,6.10
2018-05-25T08:57:39.840Z,5.70
2018-05-25T08:58:40.033Z,6.50
2018-05-25T08:59:40.235Z,6.30
2018-05-25T09:00:40.429Z,6.50
2018-05-25T09:01:40.622Z,6.60
2018-05-25T09:02:40.814Z,7.50
2018-05-25T09:03:41.016Z,8.30
2018-05-25T09:04:41.205Z,6.50
2018-05-25T09:05:41.428Z,5.80
2018-05-25T09:06:41.636Z,5.70
2018-05-25T09:07:41.782Z,5.80
2018-05-25T09:08:42.047Z,5.90
2018-05-25T09:09:42.224Z,6.30
2018-05-25T09:10:42.416Z,6.30
2018-05-25T09:11:42.619Z,6.30
2018-05-25T09:12:44.313Z,6.40
2018-05-25T09:13:43.011Z,6.00
2018-05-25T09:14:43.204Z,6.40
2018-05-25T09:15:43.453Z,7.80
2018-05-25T09:16:43.615Z,6.30
2018-05-25T09:17:43.839Z,6.30
2018-05-25T09:18:44.024Z,6.00
2018-05-25T09:19:44.220Z,6.20
2018-05-25T09:20:44.574Z,5.80
2018-05-25T09:21:44.939Z,6.50
2018-05-25T09:22:47.615Z,6.00
2018-05-25T09:23:45.744Z,6.20
2018-05-25T09:24:45.091Z,6.30
2018-05-25T09:25:45.297Z,6.40
2018-05-25T09:26:45.483Z,6.00
2018-05-25T09:27:45.795Z,6.20
2018-05-25T09:28:45.870Z,6.00
2018-05-25T09:29:46.056Z,5.90
2018-05-25T09:30:46.344Z,5.70
2018-05-25T09:31:46.357Z,5.70
2018-05-25T09:32:46.539Z,5.70
2018-05-25T09:33:46.731Z,5.70
2018-05-25T09:34:46.952Z,5.60
2018-05-25T09:35:47.159Z,5.00
2018-05-25T09:36:47.334Z,4.90
2018-05-25T09:37:47.537Z,5.10
2018-05-25T09:38:47.740Z,5.50
2018-05-25T09:39:48.061Z,5.40
2018-05-25T09:40:48.129Z,5.10
2018-05-25T09:41:48.321Z,5.60
2018-05-25T09:42:48.515Z,5.20
2018-05-25T09:43:48.700Z,5.50
2018-05-25T09:44:48.885Z,5.20
2018-05-25T09:45:49.080Z,5.30
2018-05-25T09:46:49.270Z,5.40
2018-05-25T09:47:49.459Z,6.60
2018-05-25T09:48:49.703Z,6.40
2018-05-25T09:49:49.849Z,5.80
2018-05-25T09:50:50.035Z,7.00
2018-05-25T09:51:50.215Z,5.50
2018-05-25T09:52:50.411Z,5.40
2018-05-25T09:53:50.633Z,5.70
2018-05-25T09:54:50.901Z,5.90
2018-05-25T09:55:50.963Z,5.40
2018-05-25T09:56:51.154Z,5.10
2018-05-25T09:57:51.342Z,5.20
2018-05-25T09:58:51.526Z,6.50
2018-05-25T09:59:51.709Z,5.30
2018-05-25T10:00:55.501Z,6.30
2018-05-25T10:01:52.075Z,5.30
2018-05-25T10:02:52.268Z,5.40
2018-05-25T10:03:52.478Z,5.30
2018-05-25T10:04:52.672Z,5.50
2018-05-25T10:05:52.869Z,5.10
2018-05-25T10:06:53.601Z,5.50
2018-05-25T10:07:53.168Z,5.40
2018-05-25T10:08:53.354Z,5.40
2018-05-25T10:09:53.547Z,5.80
2018-05-25T10:10:53.725Z,5.80
2018-05-25T10:11:53.920Z,6.10
2018-05-25T10:12:54.118Z,5.80
2018-05-25T10:13:54.304Z,6.60
2018-05-25T10:14:54.524Z,6.10
2018-05-25T10:15:54.715Z,6.90
2018-05-25T10:16:54.903Z,5.70
2018-05-25T10:17:55.143Z,5.90
2018-05-25T10:18:57.110Z,5.80
2018-05-25T10:19:55.441Z,5.40
2018-05-25T10:20:55.637Z,5.90
2018-05-25T10:21:55.833Z,5.30
2018-05-25T10:22:57.366Z,5.30
2018-05-25T10:23:56.205Z,5.70
2018-05-25T10:24:56.418Z,5.90
2018-05-25T10:25:56.614Z,5.50
2018-05-25T10:26:56.798Z,6.20
2018-05-25T10:27:56.993Z,6.00
2018-05-25T10:28:57.183Z,6.60
2018-05-25T10:29:57.378Z,6.30
2018-05-25T10:30:57.570Z,6.00
2018-05-25T10:31:57.751Z,6.30
2018-05-25T10:32:57.941Z,5.90
2018-05-25T10:33:58.135Z,5.70
2018-05-25T10:34:58.322Z,5.30
2018-05-25T10:35:58.502Z,5.80
2018-05-25T10:36:58.686Z,5.70
2018-05-25T10:37:58.873Z,6.40
2018-05-25T10:38:59.064Z,5.80
2018-05-25T10:39:59.256Z,5.40
2018-05-25T10:40:59.452Z,5.60
2018-05-25T10:41:59.624Z,6.30
2018-05-25T10:42:59.805Z,5.20
2018-05-25T10:43:59.997Z,5.60
2018-05-25T10:45:00.184Z,5.70
2018-05-25T10:46:00.365Z,5.70
2018-05-25T10:47:00.549Z,5.40
2018-05-25T10:48:00.745Z,6.10
2018-05-25T10:49:00.927Z,6.10
2018-05-25T10:50:01.120Z,5.30
2018-05-25T10:51:01.304Z,5.50
2018-05-25T10:52:01.491Z,5.50
2018-05-25T10:53:01.681Z,5.20
2018-05-25T10:54:01.884Z,5.50
2018-05-25T10:55:02.076Z,4.90
2018-05-25T10:56:02.299Z,4.70
2018-05-25T10:57:02.454Z,5.00
2018-05-25T10:58:02.637Z,5.00
2018-05-25T10:59:02.823Z,5.20
2018-05-25T11:00:03.011Z,5.50
2018-05-25T11:01:03.192Z,7.50
2018-05-25T11:02:03.387Z,6.00
2018-05-25T11:03:03.588Z,5.60
2018-05-25T11:04:03.770Z,4.80
2018-05-25T11:05:03.962Z,5.30
2018-05-25T11:06:04.155Z,5.00
2018-05-25T11:07:04.345Z,5.30
2018-05-25T11:08:04.537Z,4.90
2018-05-25T11:09:04.727Z,5.00
2018-05-25T11:10:04.958Z,7.10
2018-05-25T11:11:05.094Z,6.80
2018-05-25T11:12:05.276Z,5.20
2018-05-25T11:13:05.474Z,5.30
2018-05-25T11:14:05.661Z,5.30
2018-05-25T11:15:05.885Z,4.90
2018-05-25T11:16:06.079Z,5.70
2018-05-25T11:17:06.280Z,5.40
2018-05-25T11:18:06.440Z,5.50
2018-05-25T11:19:06.625Z,5.00
2018-05-25T11:20:06.812Z,5.30
2018-05-25T11:21:06.998Z,4.90
2018-05-25T11:22:07.187Z,4.90
2018-05-25T11:23:07.391Z,4.80
2018-05-25T11:24:07.578Z,4.80
2018-05-25T11:25:07.759Z,4.90
2018-05-25T11:26:07.952Z,4.60
2018-05-25T11:27:08.203Z,5.10
2018-05-25T11:28:08.354Z,5.60
2018-05-25T11:29:08.541Z,5.20
2018-05-25T11:30:08.724Z,4.40
2018-05-25T11:31:08.928Z,4.50
2018-05-25T11:32:09.183Z,4.50
2018-05-25T11:33:09.274Z,4.10
2018-05-25T11:34:09.450Z,4.10
2018-05-25T11:35:09.647Z,4.60
2018-05-25T11:36:09.885Z,5.30
2018-05-25T11:37:10.081Z,4.60
2018-05-25T11:38:10.282Z,4.70
2018-05-25T11:39:10.481Z,3.90
2018-05-25T11:40:10.702Z,4.20
2018-05-25T11:41:10.864Z,4.40
2018-05-25T11:42:11.052Z,4.80
2018-05-25T11:43:11.245Z,4.10
2018-05-25T11:44:11.442Z,3.80
2018-05-25T11:45:11.634Z,4.70
2018-05-25T11:46:11.821Z,4.00
2018-05-25T11:47:12.005Z,4.40
2018-05-25T11:48:12.189Z,4.00
2018-05-25T11:49:12.377Z,4.90
2018-05-25T11:50:12.584Z,4.10
2018-05-25T11:51:12.827Z,4.50
2018-05-25T11:52:12.952Z,4.50
2018-05-25T11:53:13.141Z,5.40
2018-05-25T11:54:13.325Z,4.30
2018-05-25T11:55:13.508Z,5.90
2018-05-25T11:56:13.692Z,4.90
2018-05-25T11:57:13.879Z,4.30
2018-05-25T11:58:14.071Z,4.70
2018-05-25T11:59:14.281Z,4.40
2018-05-25T12:00:14.497Z,4.20
2018-05-25T12:01:14.660Z,4.20
2018-05-25T12:02:14.840Z,4.20
2018-05-25T12:03:15.043Z,3.80
2018-05-25T12:04:15.235Z,4.20
2018-05-25T12:05:15.419Z,4.10
2018-05-25T12:06:15.736Z,4.30
2018-05-25T12:07:15.804Z,4.40
2018-05-25T12:08:15.999Z,3.90
2018-05-25T12:09:16.223Z,3.80
2018-05-25T12:10:16.837Z,4.20
2018-05-25T12:11:16.534Z,4.30
2018-05-25T12:12:16.718Z,4.20
2018-05-25T12:13:16.909Z,5.00
2018-05-25T12:14:17.101Z,4.30
2018-05-25T12:15:17.294Z,4.10
2018-05-25T12:16:17.486Z,4.00
2018-05-25T12:17:17.682Z,4.10
2018-05-25T12:18:17.883Z,4.00
2018-05-25T12:19:18.057Z,4.10
2018-05-25T12:20:18.253Z,4.10
2018-05-25T12:21:18.442Z,3.80
2018-05-25T12:22:20.154Z,4.10
2018-05-25T12:23:18.838Z,4.00
2018-05-25T12:24:19.021Z,3.70
2018-05-25T12:25:19.240Z,4.20
2018-05-25T12:26:19.680Z,4.50
2018-05-25T12:27:19.612Z,3.50
2018-05-25T12:28:19.836Z,3.90
2018-05-25T12:29:20.022Z,4.10
2018-05-25T12:30:20.260Z,3.50
2018-05-25T12:31:20.407Z,4.20
2018-05-25T12:32:20.808Z,3.70
2018-05-25T12:33:20.744Z,4.30
2018-05-25T12:34:21.365Z,4.00
2018-05-25T12:35:21.233Z,4.40
2018-05-25T12:36:21.387Z,4.60
2018-05-25T12:37:21.549Z,4.10
2018-05-25T12:38:22.194Z,3.70
2018-05-25T12:39:21.868Z,4.40
2018-05-25T12:40:22.056Z,4.40
2018-05-25T12:41:22.237Z,3.80
2018-05-25T12:42:22.449Z,3.90
2018-05-25T12:43:22.615Z,3.50
2018-05-25T12:44:22.840Z,3.50
2018-05-25T12:45:23.038Z,4.00
2018-05-25T12:46:23.292Z,4.80
2018-05-25T12:47:23.352Z,3.80
2018-05-25T12:48:23.539Z,3.80
2018-05-25T12:49:23.775Z,3.40
2018-05-25T12:50:23.834Z,3.60
2018-05-25T12:51:24.018Z,3.50
2018-05-25T12:52:24.215Z,3.60
2018-05-25T12:53:24.519Z,3.40
2018-05-25T12:54:24.585Z,3.50
2018-05-25T12:55:24.774Z,4.50
2018-05-25T12:56:24.976Z,3.60
2018-05-25T12:57:25.164Z,3.50
2018-05-25T12:58:25.347Z,3.70
2018-05-25T12:59:25.558Z,3.70
2018-05-25T13:00:25.733Z,3.80
2018-05-25T13:01:25.943Z,3.80
2018-05-25T13:02:26.128Z,3.50
2018-05-25T13:03:26.308Z,3.50
2018-05-25T13:04:26.507Z,3.90
2018-05-25T13:05:26.750Z,3.80
2018-05-25T13:06:26.830Z,4.70
2018-05-25T13:07:27.035Z,3.90